createdAt,value
2023-02-11T00:01:32.053Z,19.27
2023-02-11T00:04:04.575Z,19.02
2023-02-11T00:06:34.676Z,20.00
2023-02-11T00:09:02.000Z,19.33
2023-02-11T00:11:30.755Z,18.80
2023-02-11T00:14:00.487Z,21.13
2023-02-11T00:16:30.535Z,18.83
2023-02-11T00:19:00.153Z,19.50
2023-02-11T00:21:30.844Z,20.92
2023-02-11T00:24:00.090Z,17.55
2023-02-11T00:26:31.655Z,18.38
2023-02-11T00:28:59.268Z,18.90
2023-02-11T00:31:26.852Z,19.58
2023-02-11T00:33:54.381Z,18.30
2023-02-11T00:37:14.751Z,17.92
2023-02-11T00:39:44.361Z,18.00
2023-02-11T00:42:14.839Z,18.80
2023-02-11T00:44:42.849Z,18.38
2023-02-11T00:47:10.019Z,19.02
2023-02-11T00:49:40.730Z,18.70
2023-02-11T00:52:07.560Z,17.42
2023-02-11T00:54:34.584Z,19.15
2023-02-11T00:57:04.358Z,19.33
2023-02-11T00:59:31.182Z,17.42
2023-02-11T01:01:58.153Z,18.75
2023-02-11T01:04:24.938Z,18.75
2023-02-11T01:06:51.738Z,19.65
2023-02-11T01:09:18.447Z,18.58
2023-02-11T01:11:45.360Z,19.25
2023-02-11T01:14:15.029Z,19.55
2023-02-11T01:16:41.879Z,18.92
2023-02-11T01:19:11.787Z,18.35
2023-02-11T01:21:38.633Z,19.48
2023-02-11T01:24:05.451Z,19.10
2023-02-11T01:26:32.348Z,19.23
2023-02-11T01:29:04.172Z,18.30
2023-02-11T01:31:31.745Z,19.17
2023-02-11T01:33:58.991Z,18.60
2023-02-11T01:36:26.023Z,18.25
2023-02-11T01:38:52.648Z,18.55
2023-02-11T01:41:19.372Z,19.52
2023-02-11T01:43:49.548Z,18.27
2023-02-11T01:46:39.745Z,18.80
2023-02-11T01:49:09.973Z,17.65
2023-02-11T01:51:42.546Z,19.02
2023-02-11T01:54:32.133Z,17.58
2023-02-11T01:57:18.491Z,17.83
2023-02-11T01:59:52.401Z,18.73
2023-02-11T02:02:24.091Z,18.63
2023-02-11T02:05:03.364Z,18.40
2023-02-11T02:07:46.102Z,18.92
2023-02-11T02:10:17.484Z,18.52
2023-02-11T02:12:49.273Z,18.58
2023-02-11T02:15:28.419Z,18.92
2023-02-11T02:18:34.401Z,18.67
2023-02-11T02:21:27.932Z,18.02
2023-02-11T02:24:52.401Z,20.00
2023-02-11T02:27:40.629Z,19.73
2023-02-11T02:30:13.380Z,19.63
2023-02-11T02:33:23.614Z,19.33
2023-02-11T02:35:53.044Z,18.75
2023-02-11T02:38:24.629Z,19.85
2023-02-11T02:40:55.870Z,20.33
2023-02-11T02:43:24.403Z,19.83
2023-02-11T02:45:51.425Z,20.83
2023-02-11T02:48:37.381Z,20.73
2023-02-11T02:51:38.603Z,20.30
2023-02-11T02:54:42.330Z,20.65
2023-02-11T02:57:27.472Z,20.63
2023-02-11T03:00:28.603Z,19.73
2023-02-11T03:03:08.387Z,21.45
2023-02-11T03:05:52.818Z,20.23
2023-02-11T03:08:26.546Z,21.33
2023-02-11T03:10:54.663Z,20.48
2023-02-11T03:13:26.957Z,21.67
2023-02-11T03:15:58.709Z,20.05
2023-02-11T03:18:28.298Z,21.67
2023-02-11T03:20:55.365Z,22.02
2023-02-11T03:23:29.442Z,22.25
2023-02-11T03:26:00.196Z,22.85
2023-02-11T03:28:43.376Z,22.38
2023-02-11T03:31:29.622Z,21.77
2023-02-11T03:34:10.988Z,21.33
2023-02-11T03:37:10.199Z,22.42
2023-02-11T03:39:39.585Z,22.15
2023-02-11T03:42:08.784Z,21.50
2023-02-11T03:44:43.351Z,22.27
2023-02-11T03:47:12.319Z,22.63
2023-02-11T03:49:42.586Z,21.60
2023-02-11T03:52:11.596Z,23.08
2023-02-11T03:54:40.706Z,23.30
2023-02-11T03:57:07.805Z,22.95
2023-02-11T03:59:50.737Z,23.50
2023-02-11T04:02:17.926Z,21.17
2023-02-11T04:04:45.298Z,23.08
2023-02-11T04:07:15.165Z,22.52
2023-02-11T04:09:45.346Z,23.15
2023-02-11T04:12:12.117Z,23.52
2023-02-11T04:14:39.097Z,23.45
2023-02-11T04:17:09.071Z,23.58
2023-02-11T04:19:43.203Z,22.75
2023-02-11T04:22:10.310Z,22.85
2023-02-11T04:24:37.271Z,23.30
2023-02-11T04:27:04.301Z,23.15
2023-02-11T04:29:32.295Z,24.45
2023-02-11T04:31:59.260Z,24.63
2023-02-11T04:34:29.271Z,24.25
2023-02-11T04:36:58.005Z,24.60
2023-02-11T04:39:28.108Z,24.33
2023-02-11T04:41:54.967Z,24.08
2023-02-11T04:45:03.633Z,26.45
2023-02-11T04:47:30.441Z,27.13
2023-02-11T04:49:57.160Z,24.17
2023-02-11T04:52:34.194Z,24.33
2023-02-11T04:55:01.072Z,26.73
2023-02-11T04:57:28.153Z,25.63
2023-02-11T04:59:57.734Z,24.70
2023-02-11T05:02:24.717Z,25.00
2023-02-11T05:04:51.518Z,26.30
2023-02-11T05:07:18.787Z,26.77
2023-02-11T05:09:48.678Z,26.40
2023-02-11T05:12:16.091Z,27.10
2023-02-11T05:14:43.162Z,25.60
2023-02-11T05:17:10.544Z,26.77
2023-02-11T05:19:37.708Z,26.60
2023-02-11T05:22:08.020Z,26.08
2023-02-11T05:24:37.832Z,27.80
2023-02-11T05:27:12.463Z,25.67
2023-02-11T05:29:39.680Z,28.02
2023-02-11T05:32:07.781Z,28.48
2023-02-11T05:35:05.921Z,27.23
2023-02-11T05:37:35.734Z,28.60
2023-02-11T05:40:06.807Z,29.17
2023-02-11T05:42:36.936Z,27.17
2023-02-11T05:45:04.430Z,27.73
2023-02-11T05:47:43.426Z,27.17
2023-02-11T05:50:10.597Z,28.52
2023-02-11T05:56:00.587Z,28.60
2023-02-11T05:58:28.452Z,28.52
2023-02-11T06:00:55.565Z,28.65
2023-02-11T06:03:22.416Z,28.73
2023-02-11T06:05:49.772Z,29.35
2023-02-11T06:08:16.998Z,28.58
2023-02-11T06:10:46.221Z,29.25
2023-02-11T06:13:13.531Z,30.98
2023-02-11T06:15:43.567Z,28.15
2023-02-11T06:18:13.541Z,30.70
2023-02-11T06:20:43.402Z,29.90
2023-02-11T06:23:10.690Z,30.00
2023-02-11T06:25:40.407Z,29.27
2023-02-11T06:28:07.702Z,30.00
2023-02-11T06:30:34.891Z,27.83
2023-02-11T06:33:05.395Z,30.42
2023-02-11T06:35:33.895Z,30.63
2023-02-11T06:38:08.921Z,29.08
2023-02-11T06:40:38.807Z,29.65
2023-02-11T06:43:09.604Z,28.63
2023-02-11T06:45:38.576Z,31.58
2023-02-11T06:48:05.520Z,32.30
2023-02-11T06:50:32.805Z,31.48
2023-02-11T06:53:14.532Z,30.85
2023-02-11T06:55:41.623Z,31.15
2023-02-11T06:58:08.747Z,32.47
2023-02-11T07:00:35.953Z,31.67
2023-02-11T07:03:05.649Z,31.48
2023-02-11T07:05:35.445Z,32.67
2023-02-11T07:08:08.174Z,32.08
2023-02-11T07:10:37.911Z,31.63
2023-02-11T07:13:04.795Z,32.60
2023-02-11T07:15:31.742Z,31.98
2023-02-11T07:18:25.564Z,31.15
2023-02-11T07:20:55.058Z,31.58
2023-02-11T07:23:21.970Z,33.28
2023-02-11T07:26:20.730Z,30.50
2023-02-11T07:28:47.580Z,31.90
2023-02-11T07:31:20.625Z,30.98
2023-02-11T07:33:47.683Z,30.85
2023-02-11T07:36:15.923Z,30.00
2023-02-11T07:39:38.929Z,31.20
2023-02-11T07:42:08.737Z,28.83
2023-02-11T07:44:37.928Z,31.33
2023-02-11T07:47:11.149Z,30.38
2023-02-11T07:49:43.496Z,29.83
2023-02-11T07:52:13.627Z,31.85
2023-02-11T07:54:52.295Z,30.27
2023-02-11T07:57:22.236Z,30.02
2023-02-11T08:00:06.005Z,29.33
2023-02-11T08:02:33.415Z,29.52
2023-02-11T08:05:00.780Z,29.90
2023-02-11T08:08:07.606Z,30.63
2023-02-11T08:10:34.745Z,29.35
2023-02-11T08:13:02.312Z,30.80
2023-02-11T08:15:29.273Z,29.63
2023-02-11T08:17:59.470Z,28.92
2023-02-11T08:20:26.722Z,30.95
2023-02-11T08:22:54.619Z,31.95
2023-02-11T08:25:21.641Z,30.98
2023-02-11T08:27:53.554Z,31.88
2023-02-11T08:30:20.810Z,29.50
2023-02-11T08:32:47.893Z,30.45
2023-02-11T08:35:14.739Z,30.20
2023-02-11T08:37:42.356Z,29.30
2023-02-11T08:40:09.584Z,31.52
2023-02-11T08:42:39.561Z,29.33
2023-02-11T08:45:07.551Z,31.42
2023-02-11T08:47:37.874Z,28.45
2023-02-11T08:50:06.660Z,30.48
2023-02-11T08:52:36.547Z,30.20
2023-02-11T08:55:03.466Z,28.35
2023-02-11T08:57:36.072Z,28.77
2023-02-11T09:00:04.517Z,28.85
2023-02-11T09:02:31.447Z,28.58
2023-02-11T09:04:59.330Z,29.23
2023-02-11T09:07:26.456Z,28.70
2023-02-11T09:09:54.285Z,27.70
2023-02-11T09:12:21.368Z,28.65
2023-02-11T09:14:48.038Z,28.75
2023-02-11T09:17:16.464Z,28.40
2023-02-11T09:19:46.488Z,28.17
2023-02-11T09:22:13.669Z,26.58
2023-02-11T09:24:40.701Z,27.65
2023-02-11T09:27:07.519Z,27.90
2023-02-11T09:29:34.390Z,26.75
2023-02-11T09:32:01.341Z,27.55
2023-02-11T09:34:30.434Z,27.08
2023-02-11T09:36:57.090Z,26.60
2023-02-11T09:39:23.953Z,27.88
2023-02-11T09:42:28.288Z,27.58
2023-02-11T09:45:01.450Z,25.40
2023-02-11T09:47:46.652Z,25.30
2023-02-11T09:50:17.672Z,24.60
2023-02-11T09:52:59.516Z,24.63
2023-02-11T09:55:31.329Z,25.67
2023-02-11T09:57:58.529Z,24.60
2023-02-11T10:00:25.785Z,25.35
2023-02-11T10:02:59.349Z,24.67
2023-02-11T10:05:30.833Z,24.63
2023-02-11T10:08:10.102Z,26.23
2023-02-11T10:10:53.905Z,23.90
2023-02-11T10:13:51.937Z,24.80
2023-02-11T12:16:32.563Z,18.17
2023-02-11T12:19:26.630Z,18.30
2023-02-11T12:22:30.784Z,16.77
2023-02-11T12:25:09.034Z,16.35
2023-02-11T12:27:45.153Z,15.93
2023-02-11T12:30:25.660Z,16.52
2023-02-11T12:33:21.825Z,15.60
2023-02-11T12:35:56.517Z,15.68
2023-02-11T12:38:58.275Z,15.40
2023-02-11T12:42:23.186Z,14.02
2023-02-11T12:45:14.551Z,15.07
2023-02-11T12:48:07.052Z,15.82
2023-02-11T12:50:42.919Z,14.68
2023-02-11T12:53:24.487Z,15.38
2023-02-11T12:58:45.252Z,14.57
2023-02-11T13:01:30.763Z,13.90
2023-02-11T13:04:13.347Z,14.43
2023-02-11T13:06:47.397Z,14.57
2023-02-11T13:09:22.653Z,15.02
2023-02-11T13:11:55.776Z,14.25
2023-02-11T13:14:29.032Z,13.45
2023-02-11T13:17:00.683Z,14.13
2023-02-11T13:19:39.943Z,14.10
2023-02-11T13:22:25.142Z,14.32
2023-02-11T13:25:14.832Z,14.00
2023-02-11T13:27:50.970Z,14.23
2023-02-11T13:30:34.307Z,13.93
2023-02-11T13:33:06.876Z,13.90
2023-02-11T13:35:42.282Z,14.40
2023-02-11T13:38:24.748Z,13.55
2023-02-11T13:41:13.741Z,12.45
2023-02-11T13:43:40.947Z,13.52
2023-02-11T13:46:15.365Z,14.85
2023-02-11T13:48:56.312Z,14.85
2023-02-11T13:51:38.278Z,14.88
2023-02-11T13:54:09.465Z,13.05
2023-02-11T13:56:42.982Z,12.60
2023-02-11T13:59:25.422Z,13.90
2023-02-11T14:02:43.047Z,13.70
2023-02-11T14:05:35.237Z,13.43
2023-02-11T14:08:35.317Z,12.88
2023-02-11T14:11:22.275Z,13.13
2023-02-11T14:13:49.026Z,15.57
2023-02-11T14:16:31.634Z,13.57
2023-02-11T14:19:03.912Z,14.35
2023-02-11T14:21:37.487Z,14.13
2023-02-11T14:24:11.660Z,15.07
2023-02-11T14:26:48.146Z,13.75
2023-02-11T14:29:14.843Z,13.38
2023-02-11T14:32:13.137Z,13.35
2023-02-11T14:38:06.462Z,13.27
2023-02-11T14:40:51.759Z,13.48
2023-02-11T14:46:24.045Z,13.10
2023-02-11T14:48:52.978Z,11.88
2023-02-11T14:51:25.156Z,12.15
2023-02-11T14:53:54.584Z,11.50
2023-02-11T14:56:26.617Z,12.35
2023-02-11T14:58:54.775Z,11.68
2023-02-11T15:01:41.736Z,11.40
2023-02-11T15:04:27.738Z,11.93
2023-02-11T15:06:59.199Z,10.95
2023-02-11T15:09:44.004Z,12.13
2023-02-11T15:12:28.815Z,10.82
2023-02-11T15:14:57.460Z,11.40
2023-02-11T15:17:34.729Z,12.05
2023-02-11T15:20:02.364Z,12.20
2023-02-11T15:22:37.203Z,11.25
2023-02-11T15:25:08.277Z,11.60
2023-02-11T15:27:43.561Z,11.57
2023-02-11T15:30:24.935Z,10.38
2023-02-11T15:33:12.409Z,11.25
2023-02-11T15:35:41.364Z,8.30
2023-02-11T15:38:10.163Z,4.15
2023-02-11T15:40:40.817Z,0.55
2023-02-11T15:43:10.593Z,0.30
2023-02-11T15:45:43.278Z,0.20
2023-02-11T15:48:12.297Z,0.20
2023-02-11T15:50:41.113Z,0.30
2023-02-11T15:53:21.333Z,0.30
2023-02-11T15:55:54.166Z,0.98
2023-02-11T15:58:22.258Z,4.07
2023-02-11T16:00:54.944Z,7.00
2023-02-11T16:03:23.944Z,6.05
2023-02-11T16:08:36.229Z,8.90
2023-02-11T16:11:09.509Z,8.57
2023-02-11T16:13:48.319Z,8.68
2023-02-11T16:16:20.446Z,7.25
2023-02-11T16:19:07.205Z,6.80
2023-02-11T16:21:39.760Z,7.22
2023-02-11T16:24:08.583Z,7.60
2023-02-11T16:26:45.493Z,3.50
2023-02-11T16:29:23.861Z,3.65
2023-02-11T16:31:50.919Z,5.05
2023-02-11T16:34:20.515Z,3.58
2023-02-11T16:36:52.091Z,0.30
2023-02-11T16:39:22.699Z,0.30
2023-02-11T16:41:51.009Z,0.30
2023-02-11T16:44:21.290Z,0.30
2023-02-11T16:46:48.146Z,0.30
2023-02-11T16:49:24.870Z,0.20
2023-02-11T16:51:53.460Z,0.28
2023-02-11T16:57:33.041Z,0.40
2023-02-11T17:00:00.415Z,0.45
2023-02-11T17:02:32.288Z,0.60
2023-02-11T17:05:01.341Z,3.35
2023-02-11T17:07:29.088Z,1.85
2023-02-11T17:09:56.829Z,2.25
2023-02-11T17:12:26.797Z,2.88
2023-02-11T17:14:54.348Z,3.65
2023-02-11T17:17:24.018Z,5.15
2023-02-11T17:19:51.665Z,4.00
2023-02-11T17:22:27.749Z,5.28
2023-02-11T17:24:57.378Z,5.38
2023-02-11T17:27:25.347Z,6.38
2023-02-11T17:29:52.271Z,4.45
2023-02-11T17:32:20.043Z,7.13
2023-02-11T17:34:50.010Z,6.45
2023-02-11T17:37:19.443Z,8.30
2023-02-11T17:39:46.393Z,8.55
2023-02-11T17:42:15.193Z,10.57
2023-02-11T17:44:44.046Z,10.18
2023-02-11T17:47:13.215Z,9.07
2023-02-11T17:49:43.754Z,9.88
2023-02-11T17:52:10.908Z,8.57
2023-02-11T17:54:38.259Z,8.93
2023-02-11T17:57:05.397Z,8.55
2023-02-11T18:02:16.291Z,7.93
2023-02-11T18:04:43.260Z,7.53
2023-02-11T18:07:10.393Z,7.80
2023-02-11T18:09:42.957Z,8.35
2023-02-11T18:12:22.092Z,8.10
2023-02-11T18:14:57.736Z,8.70
2023-02-11T18:20:06.870Z,8.68
2023-02-11T18:22:39.471Z,7.93
2023-02-11T18:29:11.664Z,7.63
2023-02-11T18:31:39.869Z,7.38
2023-02-11T18:34:07.892Z,7.78
2023-02-11T18:36:35.209Z,7.55
2023-02-11T18:39:05.238Z,7.72
2023-02-11T18:41:32.426Z,7.55
2023-02-11T18:44:03.504Z,7.20
2023-02-11T18:46:30.955Z,7.78
2023-02-11T18:49:00.765Z,7.63
2023-02-11T18:51:30.352Z,5.95
2023-02-11T18:53:57.301Z,5.57
2023-02-11T18:56:28.157Z,6.00
2023-02-11T18:58:56.532Z,5.15
2023-02-11T19:01:30.610Z,7.70
2023-02-11T19:03:59.825Z,7.35
2023-02-11T19:06:30.702Z,6.82
2023-02-11T19:09:02.565Z,7.80
2023-02-11T19:11:49.301Z,6.68
2023-02-11T19:14:23.054Z,8.02
2023-02-11T19:16:54.330Z,8.25
2023-02-11T19:19:25.342Z,8.02
2023-02-11T19:21:53.911Z,7.55
2023-02-11T19:24:28.195Z,7.82
2023-02-11T19:29:41.345Z,7.85
2023-02-11T19:32:08.601Z,7.90
2023-02-11T19:34:41.467Z,7.82
2023-02-11T19:37:11.033Z,7.75
2023-02-11T19:39:38.266Z,8.20
2023-02-11T19:42:05.870Z,7.78
2023-02-11T19:44:32.909Z,8.52
2023-02-11T19:47:00.305Z,7.93
2023-02-11T19:49:30.478Z,7.60
2023-02-11T19:52:01.297Z,7.75
2023-02-11T19:57:11.757Z,7.28
2023-02-11T19:59:41.760Z,7.47
2023-02-11T20:02:19.781Z,7.97
2023-02-11T20:04:46.636Z,7.78
2023-02-11T20:07:13.635Z,7.80
2023-02-11T20:09:43.261Z,7.47
2023-02-11T20:12:12.554Z,7.25
2023-02-11T20:14:45.740Z,6.22
2023-02-11T20:17:12.937Z,6.47
2023-02-11T20:19:42.147Z,7.38
2023-02-11T20:22:09.093Z,7.38
2023-02-11T20:24:36.000Z,6.50
2023-02-11T20:27:02.910Z,6.15
2023-02-11T20:29:32.115Z,6.25
2023-02-11T20:31:59.305Z,5.93
2023-02-11T20:34:26.204Z,6.80
2023-02-11T20:36:56.511Z,5.88
2023-02-11T20:39:24.658Z,6.15
2023-02-11T20:41:52.612Z,5.97
2023-02-11T20:44:25.856Z,6.18
2023-02-11T20:46:54.589Z,5.70
2023-02-11T20:49:24.843Z,6.18
2023-02-11T20:51:55.967Z,6.53
2023-02-11T20:54:26.044Z,6.07
2023-02-11T20:56:56.127Z,6.03
2023-02-11T20:59:24.470Z,5.22
2023-02-11T21:01:56.398Z,4.97
2023-02-11T21:04:38.276Z,5.18
2023-02-11T21:07:08.017Z,5.47
2023-02-11T21:09:34.936Z,5.85
2023-02-11T21:12:03.555Z,6.50
2023-02-11T21:14:32.266Z,5.68
2023-02-11T21:16:59.283Z,5.85
2023-02-11T21:19:29.128Z,6.65
2023-02-11T21:21:57.418Z,6.10
2023-02-11T21:24:29.103Z,6.60
2023-02-11T21:26:56.269Z,6.60
2023-02-11T21:29:23.292Z,6.38
2023-02-11T21:31:51.562Z,6.20
2023-02-11T21:34:20.363Z,6.20
2023-02-11T21:36:47.228Z,6.47
2023-02-11T21:39:14.127Z,6.43
2023-02-11T21:41:41.475Z,6.68
2023-02-11T21:44:19.127Z,6.53
2023-02-11T21:46:45.969Z,6.78
2023-02-11T21:49:12.881Z,7.18
2023-02-11T21:51:45.864Z,7.28
2023-02-11T21:54:12.541Z,6.55
2023-02-11T21:56:42.650Z,6.97
2023-02-11T21:59:12.528Z,7.25
2023-02-11T22:01:39.505Z,6.57
2023-02-11T22:04:06.229Z,6.78
2023-02-11T22:06:37.486Z,7.68
2023-02-11T22:09:06.341Z,7.68
2023-02-11T22:11:33.150Z,7.45
2023-02-11T22:14:00.112Z,7.60
2023-02-11T22:16:30.395Z,7.60
2023-02-11T22:18:58.816Z,7.15
2023-02-11T22:21:27.061Z,7.05
2023-02-11T22:23:55.358Z,7.88
2023-02-11T22:26:26.144Z,8.00
2023-02-11T22:28:56.257Z,6.70
2023-02-11T22:31:25.796Z,7.60
2023-02-11T22:33:52.940Z,7.10
2023-02-11T22:36:31.273Z,7.03
2023-02-11T22:39:01.898Z,7.10
2023-02-11T22:41:29.152Z,6.90
2023-02-11T22:43:55.880Z,7.05
2023-02-11T22:46:22.576Z,7.53
2023-02-11T22:48:52.629Z,7.57
2023-02-11T22:51:22.490Z,6.95
2023-02-11T22:53:57.232Z,7.28
2023-02-11T22:56:25.274Z,7.25
2023-02-11T22:58:56.435Z,6.82
2023-02-11T23:01:24.050Z,6.82
2023-02-11T23:03:50.810Z,7.20
2023-02-11T23:06:18.072Z,6.50
2023-02-11T23:08:44.933Z,7.25
2023-02-11T23:11:21.151Z,6.57
2023-02-11T23:13:52.024Z,7.13
2023-02-11T23:16:21.777Z,6.40
2023-02-11T23:18:49.485Z,7.25
2023-02-11T23:21:20.404Z,5.85
2023-02-11T23:23:48.215Z,6.65
2023-02-11T23:26:17.901Z,7.00
2023-02-11T23:28:46.997Z,5.68
2023-02-11T23:31:31.236Z,6.20
2023-02-11T23:33:58.191Z,5.68
2023-02-11T23:36:25.055Z,6.20
2023-02-11T23:38:52.298Z,7.00
2023-02-11T23:41:19.622Z,6.35
2023-02-11T23:43:55.092Z,5.97
2023-02-11T23:46:22.464Z,5.78
2023-02-11T23:48:50.410Z,6.35
2023-02-11T23:51:17.453Z,5.60
2023-02-11T23:53:49.001Z,5.82
2023-02-11T23:56:20.120Z,5.00
2023-02-11T23:58:53.179Z,6.22
